Time;durP1;ratioP1;P1;durP2;ratioP2;P2;SDS_P1;SDS_P2;PMS_P1;PMS_P2;Temp;Humidity;BMP_temperature;BMP_pressure;BME280_temperature;BME280_humidity;BME280_pressure;Samples;Min_cycle;Max_cycle;Signal;HPM_P1;HPM_P2
2021/12/19 00:02:14;;;;;;;53.85;17.67;;;;;;;;;;5113458;27;20048;-67
2021/12/19 00:10:13;;;;;;;50.83;15.75;;;;;;;;;;5111554;27;20052;-67
2021/12/19 00:12:40;;;;;;;53.47;17.55;;;;;;;;;;5122179;27;20056;-67
2021/12/19 00:15:06;;;;;;;49.78;16.48;;;;;;;;;;5092124;28;20500;-67
2021/12/19 00:17:32;;;;;;;48.47;16.58;;;;;;;;;;5093112;28;20445;-67
2021/12/19 00:19:59;;;;;;;47.88;16.63;;;;;;;;;;5108845;28;20079;-67
2021/12/19 00:22:45;;;;;;;43.63;15.77;;;;;;;;;;5108449;27;20075;-67
2021/12/19 00:25:11;;;;;;;42.92;15.35;;;;;;;;;;5117884;27;20052;-67
2021/12/19 00:27:37;;;;;;;43.00;15.85;;;;;;;;;;5112338;28;20052;-69
2021/12/19 00:30:04;;;;;;;41.33;15.35;;;;;;;;;;5113549;28;20052;-69
2021/12/19 00:32:30;;;;;;;41.25;15.77;;;;;;;;;;5107221;27;20056;-69
2021/12/19 00:34:57;;;;;;;37.03;15.43;;;;;;;;;;5113811;27;20052;-68
2021/12/19 00:37:23;;;;;;;50.10;14.93;;;;;;;;;;5112287;27;20426;-69
2021/12/19 00:39:49;;;;;;;38.00;15.07;;;;;;;;;;5114726;27;20444;-69
2021/12/19 00:42:26;;;;;;;40.15;15.25;;;;;;;;;;5115270;27;20048;-69
2021/12/19 00:44:53;;;;;;;39.85;15.60;;;;;;;;;;5101760;28;20044;-68
2021/12/19 00:47:19;;;;;;;45.88;15.77;;;;;;;;;;5112628;28;20508;-66
2021/12/19 00:49:45;;;;;;;45.30;16.20;;;;;;;;;;5112668;28;20051;-67
2021/12/19 00:52:12;;;;;;;42.47;15.98;;;;;;;;;;5112711;27;20052;-69
2021/12/19 00:54:38;;;;;;;45.60;16.42;;;;;;;;;;5112905;28;20048;-69
2021/12/19 00:57:04;;;;;;;47.30;15.60;;;;;;;;;;5112263;27;20055;-69
2021/12/19 00:59:31;;;;;;;65.45;17.55;;;;;;;;;;5105467;27;20063;-68
2021/12/19 01:01:57;;;;;;;55.13;17.02;;;;;;;;;;5120116;27;20054;-69
2021/12/19 01:04:25;;;;;;;49.65;16.05;;;;;;;;;;5111186;27;20090;-68
2021/12/19 01:06:51;;;;;;;48.05;15.77;;;;;;;;;;5113362;27;20558;-68
2021/12/19 01:09:18;;;;;;;58.00;16.08;;;;;;;;;;5107095;27;20063;-68
2021/12/19 01:11:48;;;;;;;48.38;15.30;;;;;;;;;;5117262;27;20056;-68
2021/12/19 01:14:15;;;;;;;51.60;13.85;;;;;;;;;;5112688;28;20134;-68
2021/12/19 01:16:42;;;;;;;51.53;14.70;;;;;;;;;;5128256;27;20435;-67
2021/12/19 01:19:08;;;;;;;42.22;15.10;;;;;;;;;;5118310;27;20059;-68
2021/12/19 01:21:34;;;;;;;44.65;15.07;;;;;;;;;;5103908;27;20055;-68
2021/12/19 01:24:01;;;;;;;37.17;14.02;;;;;;;;;;5111183;28;20122;-69
2021/12/19 01:26:27;;;;;;;49.20;14.55;;;;;;;;;;5117417;27;20048;-68
2021/12/19 01:28:54;;;;;;;25.17;9.80;;;;;;;;;;5119541;27;20060;-68
2021/12/19 01:31:20;;;;;;;25.55;10.98;;;;;;;;;;5118143;27;20067;-68
2021/12/19 01:33:46;;;;;;;24.20;10.10;;;;;;;;;;5128196;27;20051;-68
2021/12/19 01:36:13;;;;;;;22.98;10.15;;;;;;;;;;5117232;27;20051;-68
2021/12/19 01:38:39;;;;;;;20.40;8.40;;;;;;;;;;5116386;27;20059;-68
2021/12/19 01:41:06;;;;;;;21.58;8.35;;;;;;;;;;5117375;27;20048;-68
2021/12/19 01:43:32;;;;;;;17.88;7.88;;;;;;;;;;5119370;27;20052;-68
2021/12/19 01:45:58;;;;;;;18.17;8.48;;;;;;;;;;5111396;27;20087;-69
2021/12/19 01:48:25;;;;;;;19.00;8.35;;;;;;;;;;5114242;28;20051;-69
2021/12/19 01:50:52;;;;;;;26.92;9.68;;;;;;;;;;5112348;27;20074;-69
2021/12/19 01:53:18;;;;;;;21.77;9.02;;;;;;;;;;5129559;27;20058;-68
2021/12/19 01:55:46;;;;;;;21.80;9.60;;;;;;;;;;5122684;27;20044;-69
2021/12/19 01:58:12;;;;;;;22.75;10.52;;;;;;;;;;5123889;27;20590;-69
2021/12/19 02:00:41;;;;;;;26.58;11.50;;;;;;;;;;5120424;27;20052;-68
2021/12/19 02:03:08;;;;;;;23.92;9.65;;;;;;;;;;5116312;27;20060;-69
2021/12/19 02:05:34;;;;;;;25.15;10.15;;;;;;;;;;5107742;28;20468;-68
2021/12/19 02:08:01;;;;;;;22.58;10.35;;;;;;;;;;5126283;27;20491;-69
2021/12/19 02:10:28;;;;;;;22.77;10.70;;;;;;;;;;5134280;27;20640;-68
2021/12/19 02:12:56;;;;;;;27.17;10.55;;;;;;;;;;5125368;27;20054;-69
2021/12/19 02:15:23;;;;;;;21.15;10.15;;;;;;;;;;5103385;28;20051;-68
2021/12/19 02:17:50;;;;;;;22.52;10.20;;;;;;;;;;5118179;27;20142;-69
2021/12/19 02:20:18;;;;;;;18.60;8.45;;;;;;;;;;5134334;27;20436;-68
2021/12/19 02:22:44;;;;;;;22.02;9.40;;;;;;;;;;5110810;27;20159;-68
2021/12/19 02:25:11;;;;;;;16.83;7.93;;;;;;;;;;5113133;28;20066;-69
2021/12/19 02:27:37;;;;;;;19.95;8.25;;;;;;;;;;5108796;27;20522;-69
2021/12/19 02:30:05;;;;;;;17.30;7.90;;;;;;;;;;5122760;27;20048;-68
2021/12/19 02:32:32;;;;;;;14.63;7.50;;;;;;;;;;5124692;27;20052;-68
2021/12/19 02:35:02;;;;;;;17.20;7.55;;;;;;;;;;5100597;27;20045;-68
2021/12/19 02:48:14;;;;;;;27.08;11.23;;;;;;;;;;5112388;28;20052;-68
2021/12/19 02:50:45;;;;;;;29.90;11.02;;;;;;;;;;5114264;28;20051;-68
2021/12/19 02:53:12;;;;;;;27.17;11.55;;;;;;;;;;5120229;27;20058;-70
2021/12/19 02:55:38;;;;;;;26.60;11.50;;;;;;;;;;5117843;27;20044;-68
2021/12/19 02:58:05;;;;;;;28.65;12.85;;;;;;;;;;5120423;27;20055;-69
2021/12/19 03:00:31;;;;;;;35.10;14.13;;;;;;;;;;5131177;27;20055;-68
2021/12/19 03:02:58;;;;;;;35.10;13.00;;;;;;;;;;5118131;27;20113;-68
2021/12/19 03:05:24;;;;;;;42.13;13.73;;;;;;;;;;5109030;28;20496;-69
2021/12/19 03:07:52;;;;;;;27.33;12.85;;;;;;;;;;5118778;27;20057;-68
2021/12/19 03:18:17;;;;;;;28.97;12.40;;;;;;;;;;5104113;27;20051;-67
2021/12/19 03:20:44;;;;;;;30.13;12.65;;;;;;;;;;5109668;28;20537;-68
2021/12/19 03:23:12;;;;;;;44.53;14.80;;;;;;;;;;5129383;27;20541;-67
2021/12/19 03:25:39;;;;;;;34.17;12.60;;;;;;;;;;5114565;27;20121;-69
2021/12/19 03:28:06;;;;;;;32.30;13.70;;;;;;;;;;5120932;27;20105;-68
2021/12/19 03:30:33;;;;;;;33.92;12.98;;;;;;;;;;5110136;28;20078;-68
2021/12/19 03:32:59;;;;;;;32.38;11.85;;;;;;;;;;5114572;27;20052;-69
2021/12/19 03:35:28;;;;;;;39.88;13.43;;;;;;;;;;5105194;28;20047;-68
2021/12/19 03:37:55;;;;;;;30.10;12.32;;;;;;;;;;5119094;27;20506;-68
2021/12/19 03:40:24;;;;;;;26.33;10.73;;;;;;;;;;5114794;27;20509;-67
2021/12/19 03:42:52;;;;;;;27.17;12.15;;;;;;;;;;5111845;27;20523;-69
2021/12/19 03:45:20;;;;;;;32.03;11.10;;;;;;;;;;5114530;27;20502;-66
2021/12/19 03:47:47;;;;;;;31.02;10.70;;;;;;;;;;5129301;27;20056;-67
2021/12/19 03:50:18;;;;;;;26.58;10.30;;;;;;;;;;5117783;27;20044;-68
2021/12/19 03:52:44;;;;;;;28.55;10.25;;;;;;;;;;5117845;27;20051;-68
2021/12/19 03:55:10;;;;;;;38.00;11.98;;;;;;;;;;5118738;27;20059;-68
2021/12/19 03:57:37;;;;;;;24.63;9.73;;;;;;;;;;5114008;27;20411;-67
2021/12/19 04:00:05;;;;;;;24.58;9.05;;;;;;;;;;5127887;27;20044;-68
2021/12/19 04:02:31;;;;;;;22.98;8.73;;;;;;;;;;5104677;27;20048;-68
2021/12/19 04:04:58;;;;;;;24.80;9.23;;;;;;;;;;5121133;27;20062;-68
2021/12/19 04:07:26;;;;;;;23.42;9.20;;;;;;;;;;5112566;27;20066;-68
2021/12/19 04:09:52;;;;;;;25.88;9.30;;;;;;;;;;5120352;27;20043;-68
2021/12/19 04:12:20;;;;;;;19.67;7.47;;;;;;;;;;5103992;27;20058;-68
2021/12/19 04:14:46;;;;;;;19.48;7.38;;;;;;;;;;5108864;27;20052;-67
2021/12/19 04:17:13;;;;;;;15.40;6.85;;;;;;;;;;5107241;28;20106;-68
2021/12/19 04:19:39;;;;;;;19.08;7.05;;;;;;;;;;5128066;27;20052;-69
2021/12/19 04:22:05;;;;;;;20.77;7.60;;;;;;;;;;5106056;27;20470;-67
2021/12/19 04:24:32;;;;;;;15.32;6.97;;;;;;;;;;5112842;27;20134;-67
2021/12/19 04:26:58;;;;;;;11.98;5.00;;;;;;;;;;5091415;28;20529;-68
2021/12/19 04:29:25;;;;;;;12.52;5.68;;;;;;;;;;5118961;27;20047;-69
2021/12/19 04:31:52;;;;;;;13.05;6.45;;;;;;;;;;5120095;27;20101;-69
2021/12/19 04:34:18;;;;;;;10.68;5.45;;;;;;;;;;5100738;27;20522;-69
2021/12/19 04:36:49;;;;;;;11.27;5.07;;;;;;;;;;5112305;27;20566;-67
2021/12/19 04:42:45;;;;;;;5.97;2.55;;;;;;;;;;5109362;27;20503;-67
2021/12/19 05:03:51;;;;;;;3.95;2.00;;;;;;;;;;5097841;27;20142;-67
2021/12/19 05:14:34;;;;;;;3.20;1.85;;;;;;;;;;5115736;27;20052;-67
2021/12/19 05:17:06;;;;;;;4.18;1.83;;;;;;;;;;5099950;27;20052;-68
2021/12/19 05:19:46;;;;;;;4.88;1.75;;;;;;;;;;5112387;27;20044;-67
2021/12/19 05:22:14;;;;;;;3.05;1.70;;;;;;;;;;5111642;28;20063;-68
2021/12/19 05:24:48;;;;;;;4.25;1.70;;;;;;;;;;5114147;27;20143;-68
2021/12/19 05:27:15;;;;;;;4.57;1.80;;;;;;;;;;5126008;27;20481;-67
2021/12/19 05:29:41;;;;;;;3.40;1.70;;;;;;;;;;5104654;28;20048;-67
2021/12/19 05:32:08;;;;;;;4.30;1.70;;;;;;;;;;5112636;28;20091;-68
2021/12/19 05:34:35;;;;;;;5.75;2.35;;;;;;;;;;5093226;28;20052;-68
2021/12/19 05:45:19;;;;;;;3.55;1.63;;;;;;;;;;5112179;27;20048;-69
2021/12/19 05:47:47;;;;;;;4.88;1.73;;;;;;;;;;5122263;27;20130;-67
2021/12/19 05:50:14;;;;;;;9.35;2.20;;;;;;;;;;5124614;27;20056;-67
2021/12/19 05:52:41;;;;;;;3.75;1.63;;;;;;;;;;5112557;27;20055;-67
2021/12/19 05:55:07;;;;;;;4.13;1.98;;;;;;;;;;5109986;27;20086;-67
2021/12/19 05:57:34;;;;;;;8.85;2.55;;;;;;;;;;5117913;27;20056;-67
2021/12/19 06:00:00;;;;;;;6.82;2.35;;;;;;;;;;5113146;27;20503;-68
2021/12/19 06:02:27;;;;;;;5.85;2.50;;;;;;;;;;5118883;27;20060;-68
2021/12/19 06:04:55;;;;;;;5.70;2.33;;;;;;;;;;5118753;27;20048;-69
2021/12/19 06:07:21;;;;;;;4.63;2.35;;;;;;;;;;5107801;27;20059;-69
2021/12/19 06:09:47;;;;;;;6.78;2.75;;;;;;;;;;5114220;27;20059;-67
2021/12/19 06:12:14;;;;;;;7.43;2.47;;;;;;;;;;5112195;27;20056;-67
2021/12/19 06:14:40;;;;;;;11.80;3.00;;;;;;;;;;5114126;27;20048;-68
2021/12/19 06:17:07;;;;;;;5.82;2.50;;;;;;;;;;5110984;28;20052;-67
2021/12/19 06:19:36;;;;;;;5.53;2.20;;;;;;;;;;5097313;28;20045;-68
2021/12/19 06:22:04;;;;;;;6.53;2.17;;;;;;;;;;5114974;27;20574;-68
2021/12/19 06:24:31;;;;;;;5.65;2.00;;;;;;;;;;5113910;27;20062;-67
2021/12/19 06:26:58;;;;;;;7.82;2.47;;;;;;;;;;5117443;27;20052;-67
2021/12/19 06:29:26;;;;;;;3.28;1.77;;;;;;;;;;5104386;28;20052;-68
2021/12/19 06:31:52;;;;;;;4.68;2.22;;;;;;;;;;5113915;28;20063;-68
2021/12/19 06:34:18;;;;;;;5.18;1.88;;;;;;;;;;5105671;27;20150;-68
2021/12/19 06:36:44;;;;;;;3.38;1.35;;;;;;;;;;5115493;28;20052;-68
2021/12/19 06:39:11;;;;;;;5.28;1.60;;;;;;;;;;5118103;27;20508;-68
2021/12/19 06:41:37;;;;;;;3.22;1.40;;;;;;;;;;5113102;27;20084;-67
2021/12/19 06:44:04;;;;;;;2.92;1.70;;;;;;;;;;5118127;27;20055;-68
2021/12/19 06:46:31;;;;;;;5.65;1.73;;;;;;;;;;5112408;27;20048;-68
2021/12/19 06:48:57;;;;;;;4.05;1.50;;;;;;;;;;5127787;27;20055;-67
2021/12/19 06:51:23;;;;;;;3.55;1.50;;;;;;;;;;5124746;27;20062;-67
2021/12/19 06:53:50;;;;;;;6.47;2.00;;;;;;;;;;5111557;28;20048;-68
2021/12/19 06:56:16;;;;;;;3.20;1.95;;;;;;;;;;5108313;27;20490;-68
2021/12/19 06:58:44;;;;;;;5.13;2.17;;;;;;;;;;5111319;28;20060;-68
2021/12/19 07:01:10;;;;;;;5.40;2.33;;;;;;;;;;5113821;28;20058;-68
2021/12/19 07:03:37;;;;;;;6.82;2.22;;;;;;;;;;5114072;28;20052;-69
2021/12/19 07:06:03;;;;;;;4.18;1.90;;;;;;;;;;5120554;27;20518;-69
2021/12/19 07:08:30;;;;;;;4.25;2.10;;;;;;;;;;5118095;27;20059;-68
2021/12/19 07:10:56;;;;;;;4.30;2.20;;;;;;;;;;5099444;28;20052;-67
2021/12/19 07:13:22;;;;;;;4.25;2.00;;;;;;;;;;5109628;28;20052;-68
2021/12/19 07:15:53;;;;;;;4.88;1.90;;;;;;;;;;5109716;27;20503;-67
2021/12/19 07:18:19;;;;;;;2.28;1.52;;;;;;;;;;5112947;27;20055;-66
2021/12/19 07:20:46;;;;;;;5.45;1.85;;;;;;;;;;5112362;27;20050;-67
2021/12/19 07:23:14;;;;;;;3.33;1.70;;;;;;;;;;5109887;28;20431;-67
2021/12/19 07:25:40;;;;;;;3.88;1.80;;;;;;;;;;5111741;28;20052;-67
2021/12/19 07:28:07;;;;;;;2.35;1.30;;;;;;;;;;5115418;27;20923;-67
2021/12/19 07:30:36;;;;;;;3.17;1.35;;;;;;;;;;5109599;28;20070;-67
2021/12/19 07:33:03;;;;;;;2.15;1.30;;;;;;;;;;5121921;27;20079;-67
2021/12/19 07:35:35;;;;;;;2.28;1.20;;;;;;;;;;5110660;27;20052;-67
2021/12/19 07:38:03;;;;;;;3.75;1.02;;;;;;;;;;5124893;27;20544;-68
2021/12/19 07:40:36;;;;;;;4.47;1.77;;;;;;;;;;5110410;28;20054;-68
2021/12/19 07:43:03;;;;;;;3.17;1.50;;;;;;;;;;5113672;28;20048;-70
2021/12/19 07:45:31;;;;;;;2.70;1.40;;;;;;;;;;5118248;27;20056;-68
2021/12/19 07:47:57;;;;;;;2.85;1.70;;;;;;;;;;5122020;27;20147;-67
2021/12/19 07:50:25;;;;;;;2.65;1.48;;;;;;;;;;5114022;28;20052;-67
2021/12/19 07:52:52;;;;;;;3.38;1.80;;;;;;;;;;5110409;28;20056;-67
2021/12/19 07:55:18;;;;;;;3.83;1.70;;;;;;;;;;5112489;28;20051;-67
2021/12/19 07:57:45;;;;;;;4.10;1.60;;;;;;;;;;5113573;28;20420;-68
2021/12/19 08:00:12;;;;;;;7.55;1.40;;;;;;;;;;5112501;27;20048;-67
2021/12/19 08:02:39;;;;;;;3.22;1.10;;;;;;;;;;5111146;28;20044;-69
2021/12/19 08:05:06;;;;;;;3.30;1.17;;;;;;;;;;5113265;28;20501;-68
2021/12/19 08:07:32;;;;;;;2.13;1.02;;;;;;;;;;5113450;28;20062;-67
2021/12/19 08:12:34;;;;;;;2.05;1.30;;;;;;;;;;5112582;28;20044;-66
2021/12/19 08:15:00;;;;;;;2.63;1.27;;;;;;;;;;5113103;28;20058;-67
2021/12/19 08:17:27;;;;;;;3.40;1.45;;;;;;;;;;5103324;28;20052;-66
2021/12/19 08:19:53;;;;;;;2.97;1.30;;;;;;;;;;5113109;28;20585;-68
2021/12/19 08:22:20;;;;;;;1.55;1.10;;;;;;;;;;5108967;28;20476;-66
2021/12/19 08:24:49;;;;;;;3.13;1.38;;;;;;;;;;5113627;28;20063;-65
2021/12/19 08:27:15;;;;;;;3.47;1.63;;;;;;;;;;5113192;28;20052;-66
2021/12/19 08:29:41;;;;;;;5.50;1.23;;;;;;;;;;5109625;28;20143;-66
2021/12/19 08:32:08;;;;;;;2.67;1.40;;;;;;;;;;5113107;28;20054;-67
2021/12/19 08:34:35;;;;;;;1.33;0.80;;;;;;;;;;5110673;28;20056;-67
2021/12/19 08:37:02;;;;;;;2.35;1.20;;;;;;;;;;5111488;28;20059;-67
2021/12/19 08:39:30;;;;;;;3.90;1.00;;;;;;;;;;5108647;28;20056;-66
2021/12/19 08:41:57;;;;;;;1.67;1.15;;;;;;;;;;5111770;28;20140;-67
2021/12/19 08:44:23;;;;;;;3.13;1.30;;;;;;;;;;5112348;27;20048;-66
2021/12/19 08:46:50;;;;;;;2.72;1.15;;;;;;;;;;5119707;27;20074;-67
2021/12/19 08:49:16;;;;;;;2.70;1.27;;;;;;;;;;5128785;27;20048;-67
2021/12/19 08:51:42;;;;;;;3.15;1.10;;;;;;;;;;5112605;27;20044;-67
2021/12/19 08:54:09;;;;;;;1.98;0.98;;;;;;;;;;5112681;28;20561;-67
2021/12/19 08:56:35;;;;;;;4.97;1.20;;;;;;;;;;5103644;28;20063;-67
2021/12/19 08:59:02;;;;;;;4.15;2.03;;;;;;;;;;5110315;27;20126;-67
2021/12/19 09:01:28;;;;;;;3.75;2.10;;;;;;;;;;5117881;27;20046;-67
2021/12/19 09:03:54;;;;;;;3.53;2.10;;;;;;;;;;5123863;27;20056;-68
2021/12/19 09:06:22;;;;;;;7.30;2.05;;;;;;;;;;5112567;27;20543;-67
2021/12/19 09:08:48;;;;;;;3.72;1.52;;;;;;;;;;5119904;27;20153;-67
2021/12/19 09:11:15;;;;;;;4.85;1.83;;;;;;;;;;5110745;27;20059;-67
2021/12/19 09:13:41;;;;;;;5.25;2.20;;;;;;;;;;5078647;27;20059;-66
2021/12/19 09:16:07;;;;;;;5.13;2.05;;;;;;;;;;5108246;28;20094;-66
2021/12/19 09:18:35;;;;;;;2.70;1.60;;;;;;;;;;5113496;27;20056;-66
2021/12/19 09:21:03;;;;;;;6.05;1.83;;;;;;;;;;5112297;28;20074;-67
2021/12/19 09:23:29;;;;;;;4.53;2.30;;;;;;;;;;5098741;28;20057;-66
2021/12/19 09:25:55;;;;;;;4.75;2.28;;;;;;;;;;5111333;28;20063;-66
2021/12/19 09:28:22;;;;;;;7.55;2.78;;;;;;;;;;5111624;27;20056;-67
2021/12/19 09:30:48;;;;;;;8.05;2.95;;;;;;;;;;5113228;28;20114;-65
2021/12/19 09:33:14;;;;;;;6.50;3.15;;;;;;;;;;5112086;28;20052;-66
2021/12/19 09:35:41;;;;;;;9.85;4.13;;;;;;;;;;5110987;28;20192;-65
2021/12/19 09:38:07;;;;;;;7.60;2.75;;;;;;;;;;5110633;28;20049;-66
2021/12/19 09:40:37;;;;;;;12.32;3.38;;;;;;;;;;5111045;28;20568;-67
2021/12/19 09:43:05;;;;;;;7.28;2.97;;;;;;;;;;5111234;27;20044;-65
2021/12/19 09:45:32;;;;;;;7.38;2.80;;;;;;;;;;5109874;27;20052;-68
2021/12/19 09:47:59;;;;;;;6.88;3.10;;;;;;;;;;5090228;28;20053;-68
2021/12/19 09:50:26;;;;;;;7.05;3.97;;;;;;;;;;5106004;27;20105;-67
2021/12/19 09:52:52;;;;;;;7.22;3.55;;;;;;;;;;5115476;27;20050;-68
2021/12/19 09:55:21;;;;;;;10.32;3.20;;;;;;;;;;5114338;27;20055;-67
2021/12/19 09:57:49;;;;;;;7.68;3.67;;;;;;;;;;5113564;27;20078;-67
2021/12/19 10:00:16;;;;;;;13.05;3.95;;;;;;;;;;5108789;28;20063;-67
2021/12/19 10:02:43;;;;;;;8.15;3.47;;;;;;;;;;5111363;27;20805;-68
2021/12/19 10:05:20;;;;;;;11.52;4.03;;;;;;;;;;5097809;27;20063;-68
2021/12/19 10:07:55;;;;;;;11.05;3.95;;;;;;;;;;5108323;27;20155;-67
2021/12/19 10:10:46;;;;;;;7.03;3.30;;;;;;;;;;5108580;27;20052;-68
2021/12/19 10:13:13;;;;;;;8.05;3.60;;;;;;;;;;5109456;27;20078;-68
2021/12/19 10:15:41;;;;;;;8.85;4.32;;;;;;;;;;5111802;27;20056;-67
2021/12/19 10:18:08;;;;;;;12.90;4.05;;;;;;;;;;5103564;27;20520;-67
2021/12/19 10:20:40;;;;;;;12.27;3.28;;;;;;;;;;5102905;27;20052;-68
2021/12/19 10:23:11;;;;;;;9.18;3.90;;;;;;;;;;5106898;27;20495;-68
2021/12/19 10:25:37;;;;;;;12.40;4.47;;;;;;;;;;5102533;28;20059;-68
2021/12/19 10:28:06;;;;;;;12.90;4.20;;;;;;;;;;5099287;28;20059;-65
2021/12/19 10:30:38;;;;;;;9.75;3.90;;;;;;;;;;5114394;27;20078;-68
2021/12/19 10:33:09;;;;;;;9.93;5.07;;;;;;;;;;5113128;27;20053;-68
2021/12/19 10:35:39;;;;;;;12.63;4.45;;;;;;;;;;5105757;27;20056;-68
2021/12/19 10:38:11;;;;;;;11.63;5.28;;;;;;;;;;5114359;27;20102;-68
2021/12/19 10:40:38;;;;;;;12.07;4.15;;;;;;;;;;5103919;27;20052;-68
2021/12/19 10:43:16;;;;;;;13.93;4.35;;;;;;;;;;5113293;28;20518;-67
2021/12/19 10:45:47;;;;;;;10.70;4.15;;;;;;;;;;5099264;27;20045;-67
2021/12/19 10:48:18;;;;;;;11.57;3.75;;;;;;;;;;5099887;27;20059;-67
2021/12/19 10:50:44;;;;;;;14.95;4.30;;;;;;;;;;5101105;27;20091;-65
2021/12/19 10:53:11;;;;;;;9.57;3.75;;;;;;;;;;5113408;27;20055;-66
2021/12/19 10:55:39;;;;;;;11.00;4.25;;;;;;;;;;5101501;27;20056;-67
2021/12/19 10:58:17;;;;;;;8.98;3.83;;;;;;;;;;5113027;28;20060;-67
2021/12/19 11:00:53;;;;;;;10.73;4.03;;;;;;;;;;5107530;27;20091;-66
2021/12/19 11:03:37;;;;;;;7.57;4.50;;;;;;;;;;5108313;27;20056;-66
2021/12/19 11:06:18;;;;;;;13.77;4.32;;;;;;;;;;5102121;28;20052;-66
2021/12/19 11:08:48;;;;;;;11.63;4.68;;;;;;;;;;5096379;27;20059;-66
2021/12/19 11:11:29;;;;;;;10.82;4.22;;;;;;;;;;5111981;28;20053;-66
2021/12/19 11:13:55;;;;;;;12.95;4.07;;;;;;;;;;5096637;28;20048;-66
2021/12/19 11:16:22;;;;;;;9.50;4.03;;;;;;;;;;5106788;27;20063;-67
2021/12/19 11:18:49;;;;;;;20.50;5.13;;;;;;;;;;5103458;28;20070;-67
2021/12/19 11:21:17;;;;;;;15.55;4.65;;;;;;;;;;5099178;27;20048;-67
2021/12/19 11:23:44;;;;;;;13.32;4.80;;;;;;;;;;5111669;28;20494;-66
2021/12/19 11:26:10;;;;;;;13.95;4.68;;;;;;;;;;5106760;27;20045;-66
2021/12/19 11:28:37;;;;;;;15.55;5.05;;;;;;;;;;5102276;28;20056;-67
2021/12/19 11:31:04;;;;;;;16.88;5.40;;;;;;;;;;5108359;27;20052;-67
2021/12/19 11:33:33;;;;;;;11.80;4.80;;;;;;;;;;5112603;27;20514;-67
2021/12/19 11:36:00;;;;;;;15.02;5.18;;;;;;;;;;5102429;27;20056;-66
2021/12/19 11:38:26;;;;;;;12.45;4.78;;;;;;;;;;5112397;27;20071;-66
2021/12/19 11:40:53;;;;;;;15.18;4.80;;;;;;;;;;5112095;28;20583;-67
2021/12/19 11:43:19;;;;;;;13.40;5.43;;;;;;;;;;5102963;27;20162;-67
2021/12/19 11:45:57;;;;;;;20.42;6.07;;;;;;;;;;5110967;28;20056;-67
2021/12/19 11:48:28;;;;;;;14.45;5.72;;;;;;;;;;5106977;27;20055;-68
2021/12/19 11:50:59;;;;;;;16.35;5.20;;;;;;;;;;5103276;28;20052;-66
2021/12/19 11:53:32;;;;;;;13.30;4.18;;;;;;;;;;5113031;27;20048;-65
2021/12/19 11:56:06;;;;;;;11.38;4.38;;;;;;;;;;5114144;27;20497;-66
2021/12/19 11:58:38;;;;;;;12.80;4.07;;;;;;;;;;5112096;28;20525;-66
2021/12/19 12:01:06;;;;;;;8.45;4.32;;;;;;;;;;5112267;27;20139;-66
2021/12/19 12:03:42;;;;;;;9.98;4.38;;;;;;;;;;5099752;27;20420;-66
2021/12/19 12:06:08;;;;;;;9.43;3.65;;;;;;;;;;5111540;27;20052;-66
2021/12/19 12:08:35;;;;;;;7.68;3.97;;;;;;;;;;5099077;27;20051;-66
2021/12/19 12:11:04;;;;;;;10.63;4.15;;;;;;;;;;5105898;27;20052;-66
2021/12/19 12:13:31;;;;;;;14.18;4.47;;;;;;;;;;5106536;28;20055;-67
2021/12/19 12:16:08;;;;;;;13.15;4.10;;;;;;;;;;5100453;28;20504;-68
2021/12/19 12:18:34;;;;;;;11.25;3.75;;;;;;;;;;5097558;27;20055;-66
2021/12/19 12:21:20;;;;;;;10.75;3.50;;;;;;;;;;5110393;28;20060;-68
2021/12/19 12:24:06;;;;;;;8.20;3.63;;;;;;;;;;5112411;27;20054;-68
2021/12/19 12:26:42;;;;;;;12.90;3.67;;;;;;;;;;5111845;27;20492;-66
2021/12/19 12:29:09;;;;;;;17.20;5.05;;;;;;;;;;5112349;27;20052;-66
2021/12/19 12:31:35;;;;;;;11.32;3.75;;;;;;;;;;5105776;27;20068;-67
2021/12/19 12:34:06;;;;;;;6.32;2.80;;;;;;;;;;5104731;28;20059;-67
2021/12/19 12:36:33;;;;;;;9.90;3.03;;;;;;;;;;5113788;28;20388;-67
2021/12/19 12:39:05;;;;;;;12.00;3.83;;;;;;;;;;5112322;27;20079;-69
2021/12/19 12:44:16;;;;;;;7.93;3.40;;;;;;;;;;5105279;27;20048;-68
2021/12/19 12:46:42;;;;;;;14.05;3.22;;;;;;;;;;5112706;27;26747;-67
2021/12/19 12:49:19;;;;;;;10.45;3.65;;;;;;;;;;5093471;28;20136;-67
2021/12/19 12:51:45;;;;;;;7.30;3.20;;;;;;;;;;5111889;28;20054;-67
2021/12/19 12:54:13;;;;;;;12.20;3.20;;;;;;;;;;5112435;27;20044;-67
2021/12/19 12:56:44;;;;;;;11.80;3.05;;;;;;;;;;5113651;27;20056;-67
2021/12/19 12:59:11;;;;;;;12.05;3.15;;;;;;;;;;5111988;27;20054;-67
2021/12/19 13:01:49;;;;;;;8.00;3.30;;;;;;;;;;5093213;28;20415;-68
2021/12/19 13:04:21;;;;;;;8.57;3.00;;;;;;;;;;5106402;27;20389;-67
2021/12/19 13:06:49;;;;;;;9.90;3.90;;;;;;;;;;5111124;28;20513;-67
2021/12/19 13:09:27;;;;;;;6.30;2.97;;;;;;;;;;5113074;27;20155;-68
2021/12/19 13:12:06;;;;;;;10.57;2.78;;;;;;;;;;5099589;27;20044;-67
2021/12/19 13:14:33;;;;;;;8.45;3.20;;;;;;;;;;5105031;27;20055;-68
2021/12/19 13:17:11;;;;;;;7.90;3.00;;;;;;;;;;5108743;28;20058;-69
2021/12/19 13:19:39;;;;;;;5.75;3.15;;;;;;;;;;5103721;28;20056;-66
2021/12/19 13:22:10;;;;;;;8.38;3.05;;;;;;;;;;5100157;28;20053;-68
2021/12/19 13:24:36;;;;;;;15.30;3.60;;;;;;;;;;5105448;27;20048;-68
2021/12/19 13:27:08;;;;;;;8.15;2.92;;;;;;;;;;5114407;27;20509;-68
2021/12/19 13:29:35;;;;;;;8.52;3.78;;;;;;;;;;5101620;28;20538;-68
2021/12/19 13:32:17;;;;;;;13.82;3.28;;;;;;;;;;5116336;27;20051;-67
2021/12/19 13:34:43;;;;;;;11.68;3.38;;;;;;;;;;5116178;27;20052;-68
2021/12/19 13:37:10;;;;;;;7.55;3.03;;;;;;;;;;5113442;27;20517;-68
2021/12/19 13:39:36;;;;;;;9.93;3.03;;;;;;;;;;5114627;28;20083;-68
2021/12/19 13:42:07;;;;;;;8.55;3.00;;;;;;;;;;5114727;27;20044;-68
2021/12/19 13:44:33;;;;;;;11.45;3.45;;;;;;;;;;5115222;27;20052;-67
2021/12/19 13:47:08;;;;;;;9.60;3.65;;;;;;;;;;5122373;27;20056;-68
2021/12/19 13:49:35;;;;;;;7.90;3.40;;;;;;;;;;5115596;27;20048;-68
2021/12/19 13:52:01;;;;;;;15.13;3.38;;;;;;;;;;5113318;27;20052;-68
2021/12/19 13:54:28;;;;;;;6.45;3.10;;;;;;;;;;5112376;28;20055;-67
2021/12/19 13:56:54;;;;;;;12.80;3.15;;;;;;;;;;5114117;27;20040;-67
2021/12/19 13:59:21;;;;;;;9.57;3.33;;;;;;;;;;5113732;27;20143;-67
2021/12/19 14:01:48;;;;;;;17.27;3.33;;;;;;;;;;5099935;27;20055;-67
2021/12/19 14:04:14;;;;;;;7.75;2.75;;;;;;;;;;5113471;28;20503;-68
2021/12/19 14:06:42;;;;;;;9.00;2.80;;;;;;;;;;5115801;27;20125;-68
2021/12/19 14:09:12;;;;;;;5.95;2.95;;;;;;;;;;5116090;27;20063;-67
2021/12/19 14:11:43;;;;;;;15.27;3.20;;;;;;;;;;5118749;27;20063;-68
2021/12/19 14:14:24;;;;;;;8.18;3.38;;;;;;;;;;5115587;27;20492;-68
2021/12/19 14:17:11;;;;;;;8.55;2.38;;;;;;;;;;5115877;27;20048;-68
2021/12/19 14:19:41;;;;;;;10.32;2.45;;;;;;;;;;5116396;27;20056;-69
2021/12/19 14:22:07;;;;;;;3.80;1.98;;;;;;;;;;5116082;27;20129;-68
2021/12/19 14:24:41;;;;;;;4.65;2.15;;;;;;;;;;5116386;27;20127;-68
2021/12/19 14:27:07;;;;;;;6.80;2.50;;;;;;;;;;5104608;27;20136;-68
2021/12/19 14:29:34;;;;;;;6.10;2.20;;;;;;;;;;5115934;27;20051;-68
2021/12/19 14:32:05;;;;;;;7.35;2.10;;;;;;;;;;5115360;28;20055;-67
2021/12/19 14:34:33;;;;;;;12.48;2.45;;;;;;;;;;5114280;27;20059;-67
2021/12/19 14:37:18;;;;;;;6.25;2.38;;;;;;;;;;5115381;27;20052;-67
2021/12/19 14:40:05;;;;;;;11.52;2.92;;;;;;;;;;5116106;27;20105;-67
2021/12/19 14:42:33;;;;;;;8.55;2.42;;;;;;;;;;5115299;27;20494;-67
2021/12/19 14:45:00;;;;;;;7.07;2.83;;;;;;;;;;5115177;27;20135;-67
2021/12/19 14:47:53;;;;;;;10.27;3.17;;;;;;;;;;5115139;27;20059;-67
2021/12/19 14:50:21;;;;;;;9.30;3.08;;;;;;;;;;5111838;27;20056;-67
2021/12/19 14:53:06;;;;;;;9.85;2.75;;;;;;;;;;5114438;27;20048;-66
2021/12/19 14:55:34;;;;;;;9.27;3.25;;;;;;;;;;5115219;27;20048;-68
2021/12/19 14:58:02;;;;;;;8.45;3.15;;;;;;;;;;5108170;28;20478;-67
2021/12/19 15:00:29;;;;;;;9.60;2.88;;;;;;;;;;5111432;27;20505;-66
2021/12/19 15:02:57;;;;;;;8.85;3.28;;;;;;;;;;5114074;27;20056;-67
2021/12/19 15:05:23;;;;;;;6.47;3.47;;;;;;;;;;5114373;28;20052;-67
2021/12/19 15:07:50;;;;;;;11.52;3.53;;;;;;;;;;5115035;27;20048;-68
2021/12/19 15:10:16;;;;;;;8.18;2.95;;;;;;;;;;5115312;28;20135;-67
2021/12/19 15:12:43;;;;;;;9.52;3.38;;;;;;;;;;5113784;27;20052;-68
2021/12/19 15:15:10;;;;;;;13.30;3.75;;;;;;;;;;5114741;27;20048;-67
2021/12/19 15:17:37;;;;;;;6.22;3.47;;;;;;;;;;5113520;27;20048;-67
2021/12/19 15:20:04;;;;;;;13.13;3.90;;;;;;;;;;5106946;28;20048;-68
2021/12/19 15:22:33;;;;;;;17.55;3.22;;;;;;;;;;5114847;27;20594;-67
2021/12/19 15:24:59;;;;;;;11.77;3.35;;;;;;;;;;5110354;27;20067;-67
2021/12/19 15:27:25;;;;;;;7.25;2.88;;;;;;;;;;5118684;27;20142;-67
2021/12/19 15:29:51;;;;;;;15.93;3.40;;;;;;;;;;5107643;28;20590;-67
2021/12/19 15:32:18;;;;;;;11.77;3.08;;;;;;;;;;5112583;27;20047;-68
2021/12/19 15:34:44;;;;;;;11.15;3.90;;;;;;;;;;5114032;28;20094;-66
2021/12/19 15:37:11;;;;;;;12.98;3.83;;;;;;;;;;5114753;27;20140;-68
2021/12/19 15:39:37;;;;;;;10.10;3.78;;;;;;;;;;5114715;28;20059;-68
2021/12/19 15:42:03;;;;;;;9.88;3.60;;;;;;;;;;5123081;27;20051;-68
2021/12/19 15:44:29;;;;;;;14.43;3.65;;;;;;;;;;5122483;27;20063;-65
2021/12/19 15:46:58;;;;;;;13.38;3.53;;;;;;;;;;5111589;27;20048;-66
2021/12/19 15:49:24;;;;;;;12.65;3.67;;;;;;;;;;5134620;27;20044;-66